createdAt,value
2023-02-20T00:00:43.897Z,2.80
2023-02-20T00:03:11.682Z,2.50
2023-02-20T00:05:39.337Z,2.53
2023-02-20T00:08:07.085Z,2.22
2023-02-20T00:10:34.840Z,2.80
2023-02-20T00:13:02.644Z,2.00
2023-02-20T00:15:30.419Z,1.85
2023-02-20T00:17:58.335Z,2.50
2023-02-20T00:20:27.216Z,2.92
2023-02-20T00:22:55.783Z,3.25
2023-02-20T00:25:23.613Z,2.77
2023-02-20T00:27:51.641Z,3.22
2023-02-20T00:30:20.457Z,2.88
2023-02-20T00:32:48.984Z,3.05
2023-02-20T00:35:16.887Z,2.73
2023-02-20T00:37:44.901Z,3.45
2023-02-20T00:40:12.864Z,2.67
2023-02-20T00:42:40.593Z,2.73
2023-02-20T00:45:08.649Z,3.17
2023-02-20T00:47:36.454Z,3.60
2023-02-20T00:50:04.797Z,2.43
2023-02-20T00:52:32.685Z,3.80
2023-02-20T00:55:00.455Z,3.70
2023-02-20T00:57:28.277Z,2.53
2023-02-20T00:59:56.078Z,4.97
2023-02-20T01:02:23.943Z,6.00
2023-02-20T01:04:51.667Z,4.80
2023-02-20T01:07:19.462Z,4.37
2023-02-20T01:09:47.209Z,5.05
2023-02-20T01:12:15.163Z,4.93
2023-02-20T01:14:42.925Z,4.50
2023-02-20T01:17:10.684Z,5.97
2023-02-20T01:19:38.448Z,5.40
2023-02-20T01:22:08.993Z,5.28
2023-02-20T01:24:36.910Z,5.67
2023-02-20T01:27:04.748Z,4.88
2023-02-20T01:29:32.635Z,5.93
2023-02-20T01:32:00.589Z,4.33
2023-02-20T01:34:28.437Z,5.95
2023-02-20T01:36:56.457Z,5.25
2023-02-20T01:39:25.289Z,6.03
2023-02-20T01:41:54.571Z,5.45
2023-02-20T01:44:24.133Z,6.72
2023-02-20T01:46:52.938Z,5.85
2023-02-20T01:49:22.371Z,5.77
2023-02-20T01:51:51.946Z,6.40
2023-02-20T01:54:19.872Z,5.20
2023-02-20T01:56:47.646Z,6.07
2023-02-20T01:59:15.507Z,6.15
2023-02-20T02:01:43.374Z,6.18
2023-02-20T02:04:11.192Z,6.23
2023-02-20T02:06:39.778Z,5.85
2023-02-20T02:09:10.385Z,5.72
2023-02-20T02:11:38.300Z,5.45
2023-02-20T02:14:06.109Z,5.60
2023-02-20T02:16:52.065Z,4.95
2023-02-20T02:19:22.616Z,4.65
2023-02-20T02:21:59.152Z,5.70
2023-02-20T02:24:38.754Z,4.32
2023-02-20T02:27:13.979Z,5.10
2023-02-20T02:30:04.138Z,5.53
2023-02-20T02:32:37.765Z,5.45
2023-02-20T02:35:24.326Z,5.05
2023-02-20T02:37:54.977Z,4.95
2023-02-20T02:40:28.490Z,4.80
2023-02-20T02:43:15.965Z,3.50
2023-02-20T02:45:49.449Z,5.28
2023-02-20T02:48:22.217Z,4.73
2023-02-20T02:50:50.193Z,5.13
2023-02-20T02:53:18.217Z,5.40
2023-02-20T02:55:45.972Z,5.63
2023-02-20T02:58:13.840Z,4.80
2023-02-20T03:00:42.516Z,5.20
2023-02-20T03:03:10.225Z,5.78
2023-02-20T03:05:46.793Z,5.83
2023-02-20T03:08:22.659Z,5.28
2023-02-20T03:10:53.661Z,4.78
2023-02-20T03:13:21.442Z,5.70
2023-02-20T03:15:51.560Z,4.68
2023-02-20T03:18:28.485Z,4.97
2023-02-20T03:20:57.867Z,4.43
2023-02-20T03:23:27.393Z,4.38
2023-02-20T03:25:55.553Z,4.85
2023-02-20T03:28:28.046Z,5.72
2023-02-20T03:31:00.342Z,4.90
2023-02-20T03:33:52.566Z,4.72
2023-02-20T03:36:43.190Z,5.05
2023-02-20T03:39:31.251Z,5.40
2023-02-20T03:42:17.489Z,5.07
2023-02-20T03:44:45.313Z,4.90
2023-02-20T03:47:14.315Z,4.67
2023-02-20T03:49:42.934Z,4.57
2023-02-20T03:52:10.786Z,4.45
2023-02-20T03:54:38.588Z,4.75
2023-02-20T03:57:25.116Z,5.13
2023-02-20T03:59:54.108Z,5.32
2023-02-20T04:02:45.276Z,5.32
2023-02-20T04:05:17.868Z,5.23
2023-02-20T04:07:59.137Z,5.68
2023-02-20T04:10:27.495Z,6.03
2023-02-20T04:12:55.221Z,4.63
2023-02-20T04:15:23.066Z,5.07
2023-02-20T04:17:56.404Z,4.10
2023-02-20T04:20:24.103Z,3.60
2023-02-20T04:22:51.940Z,4.37
2023-02-20T04:25:26.389Z,3.83
2023-02-20T04:27:54.220Z,3.17
2023-02-20T04:30:21.941Z,4.10
2023-02-20T04:32:49.778Z,4.15
2023-02-20T04:35:18.489Z,5.82
2023-02-20T04:37:46.430Z,3.63
2023-02-20T04:40:14.656Z,3.97
2023-02-20T04:42:42.455Z,4.20
2023-02-20T04:45:10.359Z,4.90
2023-02-20T04:47:38.331Z,4.07
2023-02-20T04:50:06.195Z,4.18
2023-02-20T04:52:33.921Z,6.20
2023-02-20T04:55:01.741Z,4.07
2023-02-20T04:57:29.437Z,4.07
2023-02-20T04:59:57.241Z,4.25
2023-02-20T05:02:25.781Z,3.33
2023-02-20T05:04:53.639Z,6.25
2023-02-20T05:07:21.468Z,6.50
2023-02-20T05:09:50.184Z,5.38
2023-02-20T05:12:18.003Z,6.27
2023-02-20T05:14:45.732Z,5.07
2023-02-20T05:17:13.657Z,4.45
2023-02-20T05:19:41.412Z,3.47
2023-02-20T05:22:21.743Z,6.28
2023-02-20T05:24:49.969Z,3.20
2023-02-20T05:27:18.512Z,2.97
2023-02-20T05:29:47.091Z,4.18
2023-02-20T05:32:15.690Z,3.40
2023-02-20T05:34:43.871Z,2.95
2023-02-20T05:37:12.180Z,2.57
2023-02-20T05:39:40.048Z,3.38
2023-02-20T05:42:07.827Z,2.17
2023-02-20T05:44:35.721Z,1.93
2023-02-20T05:47:03.593Z,2.38
2023-02-20T05:49:32.459Z,2.75
2023-02-20T05:52:00.197Z,2.97
2023-02-20T05:54:27.983Z,2.63
2023-02-20T05:56:55.758Z,2.20
2023-02-20T05:59:23.878Z,2.80
2023-02-20T06:01:55.596Z,1.77
2023-02-20T06:04:23.478Z,2.33
2023-02-20T06:06:52.315Z,3.25
2023-02-20T06:09:20.113Z,2.33
2023-02-20T06:11:51.327Z,3.17
2023-02-20T06:14:19.226Z,2.10
2023-02-20T06:16:47.107Z,2.33
2023-02-20T06:19:22.593Z,2.75
2023-02-20T06:21:50.945Z,3.03
2023-02-20T06:24:18.889Z,2.78
2023-02-20T06:26:46.755Z,3.03
2023-02-20T06:29:14.809Z,2.60
2023-02-20T06:31:42.628Z,2.85
2023-02-20T06:34:10.560Z,3.00
2023-02-20T06:36:39.001Z,2.50
2023-02-20T06:39:07.192Z,2.95
2023-02-20T06:41:35.068Z,2.90
2023-02-20T06:44:02.915Z,2.35
2023-02-20T06:46:30.681Z,2.70
2023-02-20T06:48:58.869Z,2.15
2023-02-20T06:51:31.557Z,2.57
2023-02-20T06:53:59.566Z,2.72
2023-02-20T06:56:28.237Z,2.78
2023-02-20T06:58:56.233Z,3.43
2023-02-20T07:01:27.044Z,2.47
2023-02-20T07:03:55.435Z,2.97
2023-02-20T07:06:23.670Z,3.10
2023-02-20T07:08:51.491Z,2.33
2023-02-20T07:11:19.797Z,2.72
2023-02-20T07:13:47.562Z,2.50
2023-02-20T07:16:15.723Z,2.50
2023-02-20T07:18:43.716Z,3.95
2023-02-20T07:21:11.650Z,2.55
2023-02-20T07:23:39.510Z,3.07
2023-02-20T07:26:07.391Z,3.28
2023-02-20T07:28:36.565Z,2.88
2023-02-20T07:31:04.558Z,2.87
2023-02-20T07:33:32.409Z,3.33
2023-02-20T07:36:00.125Z,2.70
2023-02-20T07:38:28.028Z,3.50
2023-02-20T07:40:55.731Z,3.47
2023-02-20T07:43:23.633Z,2.72
2023-02-20T07:45:51.364Z,3.35
2023-02-20T07:48:19.256Z,3.13
2023-02-20T07:50:47.063Z,2.80
2023-02-20T07:53:15.420Z,3.40
2023-02-20T07:55:43.345Z,2.57
2023-02-20T07:58:11.247Z,3.53
2023-02-20T08:00:38.987Z,2.78
2023-02-20T08:03:06.672Z,3.22
2023-02-20T08:05:48.318Z,3.80
2023-02-20T08:08:17.111Z,2.70
2023-02-20T08:10:44.928Z,3.67
2023-02-20T08:13:12.804Z,3.27
2023-02-20T08:15:41.968Z,3.40
2023-02-20T08:18:22.134Z,2.63
2023-02-20T08:20:52.251Z,2.60
2023-02-20T08:23:20.708Z,3.80
2023-02-20T08:25:48.447Z,3.25
2023-02-20T08:28:16.339Z,3.35
2023-02-20T08:30:44.063Z,2.43
2023-02-20T08:33:11.840Z,3.10
2023-02-20T08:35:39.615Z,3.10
2023-02-20T08:38:08.060Z,2.33
2023-02-20T08:40:35.900Z,2.63
2023-02-20T08:43:03.702Z,3.20
2023-02-20T08:45:31.482Z,2.70
2023-02-20T08:48:01.920Z,2.35
2023-02-20T08:50:29.704Z,2.88
2023-02-20T08:52:57.387Z,2.65
2023-02-20T08:55:25.180Z,2.87
2023-02-20T08:57:53.265Z,3.08
2023-02-20T09:00:21.241Z,3.03
2023-02-20T09:02:49.067Z,3.23
2023-02-20T09:05:17.276Z,2.90
2023-02-20T09:07:45.535Z,2.80
2023-02-20T09:10:13.579Z,2.80
2023-02-20T09:12:42.350Z,2.67
2023-02-20T09:15:10.707Z,2.42
2023-02-20T09:17:38.962Z,1.92
2023-02-20T09:20:10.017Z,2.93
2023-02-20T09:22:37.742Z,2.97
2023-02-20T09:25:06.997Z,3.35
2023-02-20T09:27:35.146Z,2.63
2023-02-20T09:30:03.053Z,2.50
2023-02-20T09:32:30.896Z,4.40
2023-02-20T09:34:58.886Z,3.87
2023-02-20T09:37:26.701Z,2.45
2023-02-20T09:39:54.489Z,2.67
2023-02-20T09:42:47.700Z,2.40
2023-02-20T09:45:19.137Z,2.50
2023-02-20T09:47:56.501Z,2.83
2023-02-20T09:50:42.343Z,2.50
2023-02-20T09:53:33.258Z,2.20
2023-02-20T09:56:00.952Z,2.78
2023-02-20T09:58:31.815Z,2.05
2023-02-20T10:00:59.751Z,2.90
2023-02-20T10:03:37.529Z,2.45
2023-02-20T10:06:05.769Z,3.28
2023-02-20T10:08:33.588Z,2.58
2023-02-20T10:11:03.568Z,2.37
2023-02-20T10:13:49.767Z,2.80
2023-02-20T10:16:20.934Z,2.88
2023-02-20T10:19:00.977Z,2.33
2023-02-20T10:21:37.699Z,2.75
2023-02-20T10:24:20.726Z,3.22
2023-02-20T10:26:49.098Z,2.60
2023-02-20T10:29:23.758Z,2.55
2023-02-20T10:32:01.591Z,2.42
2023-02-20T10:34:37.664Z,3.20
2023-02-20T10:37:07.987Z,2.67
2023-02-20T10:39:35.790Z,3.20
2023-02-20T10:42:05.237Z,3.00
2023-02-20T10:44:52.840Z,3.40
2023-02-20T10:47:29.470Z,3.10
2023-02-20T10:50:04.393Z,2.80
2023-02-20T10:52:34.855Z,2.80
2023-02-20T10:55:21.622Z,3.03
2023-02-20T10:57:50.636Z,2.88
2023-02-20T11:00:26.135Z,2.50
2023-02-20T11:02:57.941Z,1.93
2023-02-20T11:05:26.410Z,3.05
2023-02-20T11:07:54.375Z,2.80
2023-02-20T11:10:22.129Z,2.80
2023-02-20T11:12:53.272Z,2.70
2023-02-20T11:15:24.349Z,3.00
2023-02-20T11:17:56.583Z,2.40
2023-02-20T11:20:33.242Z,2.83
2023-02-20T11:23:04.094Z,2.70
2023-02-20T11:25:34.440Z,2.50
2023-02-20T11:28:19.073Z,3.37
2023-02-20T11:30:47.707Z,2.35
2023-02-20T11:33:18.947Z,2.42
2023-02-20T11:35:47.333Z,2.83
2023-02-20T11:38:24.317Z,2.50
2023-02-20T11:41:00.895Z,2.75
2023-02-20T11:43:33.316Z,2.43
2023-02-20T11:46:11.542Z,2.53
2023-02-20T11:48:40.851Z,2.08
2023-02-20T11:51:11.511Z,2.40
2023-02-20T11:53:39.309Z,2.70
2023-02-20T11:56:08.199Z,2.33
2023-02-20T11:58:35.998Z,2.55
2023-02-20T12:01:03.852Z,2.87
2023-02-20T12:03:32.992Z,2.60
2023-02-20T12:06:01.836Z,2.33
2023-02-20T12:08:38.585Z,2.27
2023-02-20T12:11:10.229Z,2.83
2023-02-20T12:13:42.348Z,2.17
2023-02-20T12:16:10.676Z,2.63
2023-02-20T12:18:50.508Z,1.70
2023-02-20T12:21:37.101Z,2.08
2023-02-20T12:24:13.897Z,2.10
2023-02-20T12:26:45.785Z,2.00
2023-02-20T12:29:13.471Z,1.75
2023-02-20T12:31:59.771Z,2.17
2023-02-20T12:34:46.180Z,2.53
2023-02-20T12:37:16.702Z,2.10
2023-02-20T12:39:53.664Z,1.98
2023-02-20T12:42:40.192Z,1.90
2023-02-20T12:45:17.230Z,1.87
2023-02-20T12:47:45.300Z,2.00
2023-02-20T12:50:26.293Z,2.20
2023-02-20T12:53:03.729Z,1.83
2023-02-20T12:55:40.818Z,2.13
2023-02-20T12:58:12.346Z,2.05
2023-02-20T13:00:44.214Z,2.33
2023-02-20T13:03:19.880Z,2.03
2023-02-20T13:05:48.615Z,2.25
2023-02-20T13:08:19.678Z,2.33
2023-02-20T13:10:54.211Z,2.37
2023-02-20T13:13:22.112Z,2.25
2023-02-20T13:15:59.163Z,1.92
2023-02-20T13:18:39.072Z,1.80
2023-02-20T13:21:07.591Z,2.00
2023-02-20T13:23:35.787Z,2.20
2023-02-20T13:26:03.717Z,1.97
2023-02-20T13:28:31.419Z,1.88
2023-02-20T13:31:11.810Z,2.03
2023-02-20T13:33:39.872Z,2.22
2023-02-20T13:36:08.123Z,2.10
2023-02-20T13:38:35.849Z,1.85
2023-02-20T13:41:04.408Z,1.95
2023-02-20T13:43:34.118Z,2.47
2023-02-20T13:46:07.291Z,3.22
2023-02-20T13:48:35.105Z,2.65
2023-02-20T13:51:18.523Z,2.40
2023-02-20T13:53:49.604Z,2.00
2023-02-20T13:56:21.238Z,1.77
2023-02-20T13:58:49.194Z,1.88
2023-02-20T14:01:16.907Z,2.30
2023-02-20T14:03:44.823Z,1.65
2023-02-20T14:06:14.052Z,1.90
2023-02-20T14:08:42.840Z,1.90
2023-02-20T14:11:11.827Z,1.65
2023-02-20T14:13:41.087Z,2.28
2023-02-20T14:16:28.763Z,1.73
2023-02-20T14:19:03.893Z,1.67
2023-02-20T14:21:31.714Z,2.40
2023-02-20T14:23:59.875Z,1.92
2023-02-20T14:26:31.358Z,1.90
2023-02-20T14:28:59.642Z,1.70
2023-02-20T14:31:39.771Z,1.70
2023-02-20T14:34:30.791Z,2.20
2023-02-20T14:37:01.538Z,2.13
2023-02-20T14:39:38.883Z,2.00
2023-02-20T14:42:06.631Z,2.20
2023-02-20T14:44:34.622Z,1.85
2023-02-20T14:47:06.879Z,1.90
2023-02-20T14:49:34.662Z,2.13
2023-02-20T14:52:11.159Z,1.90
2023-02-20T14:54:39.279Z,2.17
2023-02-20T14:57:07.145Z,2.35
2023-02-20T14:59:35.571Z,1.80
2023-02-20T15:02:33.120Z,2.15
2023-02-20T15:05:03.421Z,2.45
2023-02-20T15:07:31.218Z,2.27
2023-02-20T15:10:00.263Z,1.80
2023-02-20T15:12:35.263Z,2.00
2023-02-20T15:15:06.829Z,2.20
2023-02-20T15:17:35.221Z,2.63
2023-02-20T15:20:03.075Z,1.92
2023-02-20T15:22:34.032Z,1.77
2023-02-20T15:25:13.904Z,2.00
2023-02-20T15:27:41.819Z,1.92
2023-02-20T15:30:11.001Z,1.90
2023-02-20T15:32:39.268Z,1.53
2023-02-20T15:35:07.132Z,2.28
2023-02-20T15:37:43.172Z,1.98
2023-02-20T15:40:22.286Z,1.75
2023-02-20T15:42:56.665Z,1.70
2023-02-20T15:45:25.817Z,2.22
2023-02-20T15:47:53.612Z,2.20
2023-02-20T15:50:21.611Z,3.07
2023-02-20T15:52:52.339Z,2.42
2023-02-20T15:55:20.930Z,2.35
2023-02-20T15:57:49.177Z,2.60
2023-02-20T16:00:24.537Z,2.95
2023-02-20T16:02:52.630Z,2.45
2023-02-20T16:05:20.340Z,3.58
2023-02-20T16:07:48.200Z,2.73
2023-02-20T16:10:16.765Z,2.28
2023-02-20T16:12:44.577Z,3.00
2023-02-20T16:15:18.862Z,3.30
2023-02-20T16:17:48.426Z,2.80
2023-02-20T16:20:20.232Z,2.38
2023-02-20T16:22:48.487Z,3.00
2023-02-20T16:25:16.910Z,3.17
2023-02-20T16:27:44.954Z,3.03
2023-02-20T16:30:30.675Z,3.42
2023-02-20T16:33:00.266Z,2.83
2023-02-20T16:35:28.025Z,3.22
2023-02-20T16:37:55.876Z,3.05
2023-02-20T16:40:23.722Z,2.40
2023-02-20T16:42:51.511Z,2.85
2023-02-20T16:45:19.598Z,2.15
2023-02-20T16:47:51.336Z,2.37
2023-02-20T16:50:20.821Z,2.90
2023-02-20T16:52:50.533Z,3.90
2023-02-20T16:55:21.229Z,2.60
2023-02-20T16:57:49.072Z,3.00
2023-02-20T17:00:17.580Z,2.83
2023-02-20T17:02:45.295Z,2.83
2023-02-20T17:05:13.586Z,2.77
2023-02-20T17:07:41.432Z,3.10
2023-02-20T17:10:09.297Z,2.97
2023-02-20T17:12:37.152Z,3.07
2023-02-20T17:15:05.287Z,3.25
2023-02-20T17:17:33.415Z,2.75
2023-02-20T17:20:01.526Z,3.13
2023-02-20T17:22:29.614Z,2.73
2023-02-20T17:24:57.625Z,3.15
2023-02-20T17:27:25.378Z,4.93
2023-02-20T17:29:53.475Z,3.57
2023-02-20T17:32:21.198Z,4.25
2023-02-20T17:34:49.008Z,3.50
2023-02-20T17:37:17.038Z,3.23
2023-02-20T17:39:44.919Z,3.70
2023-02-20T17:42:12.759Z,3.05
2023-02-20T17:44:40.780Z,4.43
2023-02-20T17:47:10.649Z,3.40
2023-02-20T17:49:41.166Z,2.50
2023-02-20T17:52:09.636Z,2.50
2023-02-20T17:54:37.616Z,2.17
2023-02-20T17:57:05.347Z,2.13
2023-02-20T17:59:33.086Z,2.10
2023-02-20T18:02:00.893Z,3.07
2023-02-20T18:04:29.650Z,2.97
2023-02-20T18:06:57.407Z,2.22
2023-02-20T18:09:25.200Z,2.95
2023-02-20T18:11:52.984Z,2.50
2023-02-20T18:14:20.813Z,3.67
2023-02-20T18:16:48.515Z,2.83
2023-02-20T18:19:17.934Z,3.60
2023-02-20T18:21:49.496Z,3.50
2023-02-20T18:24:17.885Z,2.65
2023-02-20T18:26:45.726Z,3.40
2023-02-20T18:29:13.562Z,3.10
2023-02-20T18:31:41.436Z,2.88
2023-02-20T18:34:09.338Z,3.75
2023-02-20T18:36:38.003Z,3.40
2023-02-20T18:39:08.619Z,3.58
2023-02-20T18:41:36.977Z,2.85
2023-02-20T18:44:04.813Z,3.03
2023-02-20T18:46:36.616Z,2.85
2023-02-20T18:49:05.338Z,2.78
2023-02-20T18:51:34.351Z,2.67
2023-02-20T18:54:02.183Z,2.65
2023-02-20T18:56:29.934Z,2.97
2023-02-20T18:58:57.910Z,2.58
2023-02-20T19:01:25.902Z,2.50
2023-02-20T19:03:54.275Z,2.70
2023-02-20T19:06:25.925Z,2.25
2023-02-20T19:08:54.047Z,2.30
2023-02-20T19:11:22.435Z,2.42
2023-02-20T19:13:50.207Z,2.40
2023-02-20T19:16:17.988Z,2.73
2023-02-20T19:18:50.889Z,2.70
2023-02-20T19:21:19.295Z,2.70
2023-02-20T19:23:47.354Z,2.42
2023-02-20T19:26:17.560Z,2.93
2023-02-20T19:28:45.338Z,2.10
2023-02-20T19:31:13.809Z,2.88
2023-02-20T19:33:41.987Z,2.83
2023-02-20T19:36:11.345Z,2.75
2023-02-20T19:38:39.598Z,2.78
2023-02-20T19:41:08.417Z,2.40
2023-02-20T19:43:36.158Z,2.80
2023-02-20T19:46:04.131Z,2.33
2023-02-20T19:48:32.038Z,2.38
2023-02-20T19:50:59.789Z,2.47
2023-02-20T19:53:27.588Z,2.65
2023-02-20T19:55:55.769Z,2.85
2023-02-20T19:58:24.014Z,1.90
2023-02-20T20:00:52.066Z,2.33
2023-02-20T20:03:20.492Z,1.90
2023-02-20T20:05:49.339Z,2.37
2023-02-20T20:08:17.674Z,2.22
2023-02-20T20:10:45.420Z,2.70
2023-02-20T20:13:13.192Z,2.20
2023-02-20T20:15:41.002Z,3.10
2023-02-20T20:18:09.842Z,2.75
2023-02-20T20:20:37.765Z,2.30
2023-02-20T20:23:05.941Z,2.10
2023-02-20T20:25:33.866Z,2.13
2023-02-20T20:28:04.695Z,2.22
2023-02-20T20:30:35.727Z,2.37
2023-02-20T20:33:03.572Z,1.92
2023-02-20T20:35:31.514Z,2.22
2023-02-20T20:38:00.334Z,2.10
2023-02-20T20:40:28.458Z,2.27
2023-02-20T20:42:56.395Z,1.95
2023-02-20T20:45:24.302Z,2.80
2023-02-20T20:47:52.081Z,2.17
2023-02-20T20:50:20.629Z,2.03
2023-02-20T20:52:48.523Z,1.92
2023-02-20T20:55:16.336Z,1.70
2023-02-20T20:57:47.227Z,1.85
2023-02-20T21:00:21.932Z,2.03
2023-02-20T21:02:49.722Z,1.58
2023-02-20T21:05:26.432Z,1.70
2023-02-20T21:07:55.372Z,2.08
2023-02-20T21:10:23.123Z,3.90
2023-02-20T21:12:50.839Z,5.40
2023-02-20T21:15:18.786Z,4.07
2023-02-20T21:17:46.617Z,8.77
2023-02-20T21:20:15.662Z,6.30
2023-02-20T21:22:43.423Z,3.45
2023-02-20T21:25:11.223Z,2.63
2023-02-20T21:27:39.102Z,1.75
2023-02-20T21:30:09.368Z,2.13
2023-02-20T21:32:37.523Z,2.10
2023-02-20T21:35:05.398Z,2.22
2023-02-20T21:37:33.223Z,1.90
2023-02-20T21:40:02.268Z,1.45
2023-02-20T21:42:48.766Z,1.92
2023-02-20T21:45:16.470Z,2.10
2023-02-20T21:47:44.254Z,1.63
2023-02-20T21:50:11.982Z,1.90
2023-02-20T21:52:39.710Z,1.58
2023-02-20T21:55:08.217Z,1.93
2023-02-20T21:57:36.117Z,1.70
2023-02-20T22:00:04.878Z,1.90
2023-02-20T22:02:32.576Z,2.10
2023-02-20T22:05:01.242Z,2.38
2023-02-20T22:07:47.785Z,2.90
2023-02-20T22:10:35.825Z,4.97
2023-02-20T22:13:22.451Z,5.13
2023-02-20T22:16:08.927Z,4.32
2023-02-20T22:18:55.103Z,3.63
2023-02-20T22:21:42.040Z,3.40
2023-02-20T22:24:37.781Z,4.28
2023-02-20T22:27:28.105Z,5.13
2023-02-20T22:30:14.989Z,4.73
2023-02-20T22:33:01.641Z,4.45
2023-02-20T22:35:48.256Z,4.63
2023-02-20T22:38:34.537Z,3.37
2023-02-20T22:41:20.834Z,4.30
2023-02-20T22:44:07.049Z,2.63
2023-02-20T22:46:53.422Z,3.65
2023-02-20T22:49:41.050Z,2.17
2023-02-20T22:52:27.478Z,3.95
2023-02-20T22:55:13.947Z,4.43
2023-02-20T22:58:00.451Z,3.37
2023-02-20T23:00:46.804Z,2.53
2023-02-20T23:03:32.968Z,2.20
2023-02-20T23:06:20.131Z,2.73
2023-02-20T23:09:07.699Z,1.98
2023-02-20T23:11:57.268Z,1.50
2023-02-20T23:14:43.556Z,2.03
2023-02-20T23:17:36.889Z,1.83
2023-02-20T23:20:25.025Z,2.00
2023-02-20T23:23:11.630Z,1.70
2023-02-20T23:25:58.178Z,2.30
2023-02-20T23:28:44.658Z,2.28
2023-02-20T23:31:31.119Z,2.70
2023-02-20T23:34:17.544Z,1.83
2023-02-20T23:37:10.659Z,2.13
2023-02-20T23:39:56.885Z,1.75
2023-02-20T23:42:42.998Z,1.40
2023-02-20T23:45:29.520Z,1.20
2023-02-20T23:48:15.831Z,1.83
2023-02-20T23:51:01.946Z,1.67
2023-02-20T23:53:48.566Z,1.73
2023-02-20T23:56:34.710Z,2.53
2023-02-20T23:59:21.384Z,1.70
